createdAt,value
2023-05-21T00:00:15.416Z,19.84
2023-05-21T00:01:17.059Z,20.20
2023-05-21T00:02:19.919Z,20.35
2023-05-21T00:03:22.029Z,20.52
2023-05-21T00:04:25.494Z,20.64
2023-05-21T00:05:27.085Z,20.76
2023-05-21T00:06:28.788Z,20.78
2023-05-21T00:07:31.577Z,20.44
2023-05-21T00:08:34.354Z,20.65
2023-05-21T00:09:38.197Z,20.54
2023-05-21T00:10:39.776Z,20.65
2023-05-21T00:11:41.363Z,20.65
2023-05-21T00:12:43.021Z,20.72
2023-05-21T00:13:44.569Z,20.70
2023-05-21T00:14:46.727Z,20.73
2023-05-21T00:15:48.455Z,20.78
2023-05-21T00:16:50.238Z,20.81
2023-05-21T00:17:52.103Z,20.81
2023-05-21T00:18:58.091Z,20.80
2023-05-21T00:20:00.214Z,20.88
2023-05-21T00:21:02.206Z,20.88
2023-05-21T00:22:04.598Z,20.83
2023-05-21T00:23:06.233Z,20.38
2023-05-21T00:24:07.849Z,20.43
2023-05-21T00:25:10.263Z,20.55
2023-05-21T00:26:11.976Z,20.42
2023-05-21T00:27:13.626Z,20.48
2023-05-21T00:28:15.198Z,20.27
2023-05-21T00:29:17.124Z,20.46
2023-05-21T00:30:18.716Z,20.35
2023-05-21T00:31:20.358Z,20.48
2023-05-21T00:32:22.054Z,20.47
2023-05-21T00:33:26.532Z,20.61
2023-05-21T00:34:29.570Z,20.51
2023-05-21T00:35:31.447Z,20.65
2023-05-21T00:36:35.686Z,20.54
2023-05-21T00:37:38.171Z,20.65
2023-05-21T00:38:43.500Z,20.60
2023-05-21T00:39:45.074Z,20.31
2023-05-21T00:40:46.770Z,20.26
2023-05-21T00:41:48.672Z,20.47
2023-05-21T00:42:50.289Z,20.59
2023-05-21T00:43:52.871Z,20.47
2023-05-21T00:44:54.498Z,20.38
2023-05-21T00:45:56.585Z,20.40
2023-05-21T00:46:58.970Z,19.99
2023-05-21T00:48:02.772Z,20.11
2023-05-21T00:49:04.443Z,20.37
2023-05-21T00:50:06.597Z,20.50
2023-05-21T00:51:08.176Z,19.70
2023-05-21T00:52:09.984Z,19.90
2023-05-21T00:53:12.836Z,20.13
2023-05-21T00:54:14.327Z,20.64
2023-05-21T00:55:16.105Z,20.63
2023-05-21T00:56:17.790Z,20.65
2023-05-21T00:57:21.127Z,20.52
2023-05-21T00:58:22.763Z,20.45
2023-05-21T00:59:24.441Z,20.23
2023-05-21T01:00:26.589Z,20.29
2023-05-21T01:01:34.103Z,20.42
2023-05-21T01:02:37.338Z,20.51
2023-05-21T01:03:39.679Z,20.48
2023-05-21T01:04:41.326Z,20.25
2023-05-21T01:05:45.195Z,20.46
2023-05-21T01:06:47.118Z,20.39
2023-05-21T01:07:48.743Z,20.34
2023-05-21T01:08:50.944Z,19.97
2023-05-21T01:09:54.190Z,20.25
2023-05-21T01:10:55.709Z,20.35
2023-05-21T01:11:57.642Z,20.45
2023-05-21T01:12:59.224Z,20.49
2023-05-21T01:14:00.976Z,20.57
2023-05-21T01:15:03.021Z,20.58
2023-05-21T01:16:06.786Z,20.49
2023-05-21T01:17:10.769Z,20.43
2023-05-21T01:18:14.483Z,20.56
2023-05-21T01:19:17.502Z,20.39
2023-05-21T01:20:19.727Z,20.34
2023-05-21T01:21:21.701Z,20.34
2023-05-21T01:22:24.877Z,20.41
2023-05-21T01:23:26.770Z,20.23
2023-05-21T01:24:28.345Z,20.33
2023-05-21T01:25:29.939Z,20.16
2023-05-21T01:26:34.066Z,20.41
2023-05-21T01:27:35.819Z,20.08
2023-05-21T01:28:37.481Z,20.05
2023-05-21T01:29:39.140Z,20.30
2023-05-21T01:30:41.411Z,20.38
2023-05-21T01:31:53.928Z,20.46
2023-05-21T01:33:00.927Z,20.46
2023-05-21T01:34:02.647Z,20.56
2023-05-21T01:35:13.113Z,20.57
2023-05-21T01:36:34.881Z,20.66
2023-05-21T01:37:59.795Z,20.77
2023-05-21T01:39:04.219Z,20.76
2023-05-21T01:40:10.896Z,20.75
2023-05-21T01:41:13.112Z,20.78
2023-05-21T01:42:15.692Z,20.70
2023-05-21T01:43:17.272Z,20.65
2023-05-21T01:44:18.952Z,20.54
2023-05-21T01:45:20.628Z,20.48
2023-05-21T01:46:25.197Z,20.57
2023-05-21T01:47:27.127Z,20.57
2023-05-21T01:48:29.564Z,20.54
2023-05-21T01:49:31.125Z,20.14
2023-05-21T01:50:33.759Z,20.38
2023-05-21T01:51:35.572Z,20.31
2023-05-21T01:52:37.430Z,20.48
2023-05-21T01:53:40.672Z,20.34
2023-05-21T01:54:42.210Z,20.45
2023-05-21T01:55:43.833Z,20.47
2023-05-21T01:56:46.116Z,20.51
2023-05-21T01:57:47.758Z,20.53
2023-05-21T01:58:50.107Z,20.47
2023-05-21T01:59:53.407Z,20.43
2023-05-21T02:00:55.689Z,20.41
2023-05-21T02:01:57.316Z,20.48
2023-05-21T02:02:59.017Z,20.38
2023-05-21T02:04:00.927Z,20.39
2023-05-21T02:05:02.586Z,20.38
2023-05-21T02:06:04.275Z,20.29
2023-05-21T02:07:06.855Z,20.11
2023-05-21T02:08:11.440Z,20.05
2023-05-21T02:09:13.010Z,20.17
2023-05-21T02:10:14.662Z,20.24
2023-05-21T02:11:16.411Z,20.17
2023-05-21T02:12:18.741Z,20.00
2023-05-21T02:13:23.041Z,20.02
2023-05-21T02:14:26.729Z,20.07
2023-05-21T02:15:29.119Z,20.06
2023-05-21T02:16:31.104Z,20.07
2023-05-21T02:17:33.995Z,20.08
2023-05-21T02:18:36.497Z,20.16
2023-05-21T02:19:38.066Z,20.08
2023-05-21T02:20:39.616Z,20.10
2023-05-21T02:21:41.236Z,20.09
2023-05-21T02:22:43.940Z,20.12
2023-05-21T02:23:45.761Z,20.12
2023-05-21T02:24:47.356Z,20.02
2023-05-21T02:25:49.060Z,19.93
2023-05-21T02:26:51.389Z,19.74
2023-05-21T02:27:54.139Z,19.74
2023-05-21T02:28:55.787Z,19.61
2023-05-21T02:29:57.488Z,19.78
2023-05-21T02:30:59.070Z,19.92
2023-05-21T02:32:00.780Z,19.98
2023-05-21T02:33:02.975Z,19.97
2023-05-21T02:34:04.738Z,19.95
2023-05-21T02:35:06.593Z,19.74
2023-05-21T02:36:13.014Z,19.72
2023-05-21T02:37:14.577Z,19.85
2023-05-21T02:38:19.458Z,19.88
2023-05-21T02:39:21.109Z,19.99
2023-05-21T02:40:22.836Z,19.82
2023-05-21T02:41:24.880Z,19.87
2023-05-21T02:42:26.449Z,19.73
2023-05-21T02:43:28.018Z,19.66
2023-05-21T02:44:29.614Z,19.54
2023-05-21T02:45:31.247Z,19.62
2023-05-21T02:46:33.285Z,19.70
2023-05-21T02:47:34.981Z,19.75
2023-05-21T02:48:36.607Z,19.72
2023-05-21T02:49:38.385Z,19.82
2023-05-21T02:50:40.017Z,19.77
2023-05-21T02:51:41.635Z,19.64
2023-05-21T02:52:43.294Z,19.69
2023-05-21T02:53:44.862Z,19.71
2023-05-21T02:54:46.858Z,19.77
2023-05-21T02:55:48.515Z,19.73
2023-05-21T02:56:50.104Z,19.64
2023-05-21T02:57:51.671Z,19.60
2023-05-21T02:58:53.475Z,19.58
2023-05-21T02:59:55.060Z,19.58
2023-05-21T03:00:56.691Z,19.12
2023-05-21T03:01:58.347Z,19.22
2023-05-21T03:03:00.252Z,19.38
2023-05-21T03:04:02.039Z,19.54
2023-05-21T03:05:03.805Z,19.64
2023-05-21T03:06:05.828Z,19.56
2023-05-21T03:07:10.132Z,19.56
2023-05-21T03:08:11.705Z,19.62
2023-05-21T03:09:13.381Z,19.53
2023-05-21T03:10:15.034Z,19.74
2023-05-21T03:11:16.614Z,19.71
2023-05-21T03:12:18.188Z,19.77
2023-05-21T03:13:20.270Z,19.82
2023-05-21T03:14:21.941Z,19.77
2023-05-21T03:15:24.048Z,19.75
2023-05-21T03:16:25.924Z,19.82
2023-05-21T03:17:27.590Z,19.81
2023-05-21T03:18:29.175Z,19.84
2023-05-21T03:19:34.565Z,19.82
2023-05-21T03:20:36.329Z,19.85
2023-05-21T03:21:37.978Z,19.81
2023-05-21T03:22:39.961Z,19.83
2023-05-21T03:23:42.643Z,19.78
2023-05-21T03:24:45.350Z,19.84
2023-05-21T03:25:47.365Z,19.80
2023-05-21T03:26:50.276Z,19.81
2023-05-21T03:27:52.373Z,19.82
2023-05-21T03:28:54.087Z,19.82
2023-05-21T03:29:55.900Z,19.58
2023-05-21T03:30:57.537Z,19.56
2023-05-21T03:31:59.147Z,19.57
2023-05-21T03:33:00.769Z,19.61
2023-05-21T03:34:02.334Z,19.67
2023-05-21T03:35:05.217Z,19.67
2023-05-21T03:36:07.170Z,19.95
2023-05-21T03:37:08.750Z,19.44
2023-05-21T03:38:10.357Z,19.48
2023-05-21T03:39:11.958Z,19.40
2023-05-21T03:40:13.811Z,19.24
2023-05-21T03:41:15.453Z,19.08
2023-05-21T03:42:17.088Z,19.17
2023-05-21T03:43:18.742Z,19.31
2023-05-21T03:44:20.326Z,19.44
2023-05-21T03:45:21.952Z,19.46
2023-05-21T03:46:23.646Z,18.98
2023-05-21T03:47:25.350Z,19.06
2023-05-21T03:48:26.942Z,19.23
2023-05-21T03:49:28.505Z,18.92
2023-05-21T03:50:30.154Z,18.80
2023-05-21T03:51:32.015Z,18.84
2023-05-21T03:52:33.642Z,19.14
2023-05-21T03:53:35.504Z,19.32
2023-05-21T03:54:37.196Z,19.16
2023-05-21T03:55:38.772Z,19.26
2023-05-21T03:56:40.602Z,19.28
2023-05-21T03:57:42.960Z,19.28
2023-05-21T03:58:44.530Z,19.41
2023-05-21T03:59:46.100Z,19.50
2023-05-21T04:00:48.341Z,19.41
2023-05-21T04:01:49.967Z,19.55
2023-05-21T04:02:51.901Z,19.59
2023-05-21T04:03:53.786Z,19.57
2023-05-21T04:04:56.165Z,19.66
2023-05-21T04:05:57.836Z,19.71
2023-05-21T04:06:59.756Z,19.68
2023-05-21T04:08:01.359Z,19.67
2023-05-21T04:09:02.923Z,19.61
2023-05-21T04:10:04.992Z,19.63
2023-05-21T04:11:06.769Z,19.67
2023-05-21T04:12:08.645Z,19.30
2023-05-21T04:13:10.237Z,19.82
2023-05-21T04:14:11.918Z,19.87
2023-05-21T04:15:14.812Z,19.87
2023-05-21T04:16:19.240Z,20.06
2023-05-21T04:17:21.692Z,19.46
2023-05-21T04:18:25.977Z,19.57
2023-05-21T04:19:27.717Z,19.57
2023-05-21T04:20:29.645Z,19.59
2023-05-21T04:21:32.229Z,19.70
2023-05-21T04:22:33.808Z,19.71
2023-05-21T04:23:36.747Z,19.73
2023-05-21T04:24:38.616Z,19.80
2023-05-21T04:25:40.522Z,19.86
2023-05-21T04:26:42.454Z,19.88
2023-05-21T04:27:47.740Z,19.87
2023-05-21T04:28:50.465Z,19.88
2023-05-21T04:29:52.080Z,19.91
2023-05-21T04:30:53.994Z,19.95
2023-05-21T04:31:55.986Z,19.89
2023-05-21T04:32:58.087Z,19.97
2023-05-21T04:33:59.792Z,20.01
2023-05-21T04:35:01.353Z,19.99
2023-05-21T04:36:03.897Z,19.92
2023-05-21T04:37:05.445Z,19.92
2023-05-21T04:38:06.991Z,19.94
2023-05-21T04:39:08.566Z,19.92
2023-05-21T04:40:10.405Z,19.87
2023-05-21T04:41:11.969Z,19.84
2023-05-21T04:42:13.522Z,19.91
2023-05-21T04:43:17.293Z,19.69
2023-05-21T04:44:19.608Z,19.92
2023-05-21T04:45:21.287Z,19.93
2023-05-21T04:46:26.051Z,19.94
2023-05-21T04:47:30.423Z,19.90
2023-05-21T04:48:32.087Z,20.01
2023-05-21T04:49:35.044Z,20.00
2023-05-21T04:50:36.720Z,20.04
2023-05-21T04:51:38.310Z,20.05
2023-05-21T04:52:40.369Z,20.10
2023-05-21T04:53:42.557Z,20.17
2023-05-21T04:54:45.883Z,20.18
2023-05-21T04:55:47.488Z,20.14
2023-05-21T04:56:49.175Z,20.01
2023-05-21T04:57:51.160Z,20.11
2023-05-21T04:58:54.379Z,20.14
2023-05-21T04:59:57.958Z,20.16
2023-05-21T05:01:03.079Z,20.16
2023-05-21T05:02:05.005Z,20.16
2023-05-21T05:03:06.626Z,20.19
2023-05-21T05:04:08.297Z,20.20
2023-05-21T05:05:09.993Z,20.24
2023-05-21T05:06:11.567Z,20.29
2023-05-21T05:07:13.616Z,20.21
2023-05-21T05:08:16.272Z,20.24
2023-05-21T05:09:18.550Z,20.29
2023-05-21T05:10:20.517Z,20.31
2023-05-21T05:11:22.498Z,20.32
2023-05-21T05:12:24.043Z,20.33
2023-05-21T05:13:26.198Z,20.37
2023-05-21T05:14:27.857Z,20.33
2023-05-21T05:15:29.634Z,20.04
2023-05-21T05:16:31.249Z,20.12
2023-05-21T05:17:34.429Z,20.21
2023-05-21T05:18:36.455Z,20.26
2023-05-21T05:19:38.099Z,19.78
2023-05-21T05:20:39.678Z,19.86
2023-05-21T05:21:41.372Z,19.92
2023-05-21T05:22:42.919Z,19.95
2023-05-21T05:23:44.504Z,19.61
2023-05-21T05:24:46.047Z,19.67
2023-05-21T05:25:47.618Z,19.75
2023-05-21T05:26:49.159Z,19.58
2023-05-21T05:27:50.836Z,19.85
2023-05-21T05:28:52.649Z,19.59
2023-05-21T05:29:54.216Z,19.82
2023-05-21T05:30:55.844Z,19.97
2023-05-21T05:31:57.405Z,20.12
2023-05-21T05:32:59.010Z,20.11
2023-05-21T05:34:00.677Z,20.34
2023-05-21T05:35:03.117Z,20.40
2023-05-21T05:36:04.827Z,20.42
2023-05-21T05:37:06.453Z,20.50
2023-05-21T05:38:09.272Z,20.36
2023-05-21T05:39:10.980Z,20.58
2023-05-21T05:40:12.734Z,20.06
2023-05-21T05:41:14.344Z,19.79
2023-05-21T05:42:16.066Z,20.23
2023-05-21T05:43:17.856Z,20.08
2023-05-21T05:44:19.430Z,20.27
2023-05-21T05:45:21.100Z,20.36
2023-05-21T05:46:22.772Z,20.39
2023-05-21T05:47:24.488Z,20.14
2023-05-21T05:48:26.086Z,20.29
2023-05-21T05:49:27.862Z,20.23
2023-05-21T05:50:29.515Z,20.22
2023-05-21T05:51:31.671Z,20.04
2023-05-21T05:52:33.280Z,20.01
2023-05-21T05:53:34.828Z,20.20
2023-05-21T05:54:36.397Z,20.44
2023-05-21T05:55:38.247Z,20.51
2023-05-21T05:56:40.121Z,20.57
2023-05-21T05:57:42.669Z,20.67
2023-05-21T05:58:46.090Z,20.75
2023-05-21T05:59:47.678Z,20.85
2023-05-21T06:00:49.235Z,20.97
2023-05-21T06:01:50.882Z,20.78
2023-05-21T06:02:52.544Z,20.35
2023-05-21T06:03:54.236Z,20.78
2023-05-21T06:04:56.004Z,20.92
2023-05-21T06:05:57.632Z,20.85
2023-05-21T06:06:59.989Z,20.34
2023-05-21T06:08:01.569Z,20.77
2023-05-21T06:09:03.153Z,20.49
2023-05-21T06:10:06.433Z,20.22
2023-05-21T06:11:08.001Z,20.10
2023-05-21T06:12:12.310Z,20.39
2023-05-21T06:13:16.352Z,20.53
2023-05-21T06:14:17.930Z,20.71
2023-05-21T06:15:19.545Z,20.80
2023-05-21T06:16:21.303Z,21.02
2023-05-21T06:17:23.059Z,20.84
2023-05-21T06:18:24.691Z,20.84
2023-05-21T06:19:26.364Z,21.02
2023-05-21T06:20:28.090Z,20.88
2023-05-21T06:21:29.660Z,20.51
2023-05-21T06:22:31.240Z,20.58
2023-05-21T06:23:32.848Z,20.75
2023-05-21T06:24:34.412Z,20.47
2023-05-21T06:25:36.226Z,20.42
2023-05-21T06:26:37.908Z,20.01
2023-05-21T06:27:39.513Z,20.54
2023-05-21T06:28:41.041Z,20.53
2023-05-21T06:29:42.582Z,20.22
2023-05-21T06:30:44.160Z,20.54
2023-05-21T06:31:45.705Z,20.98
2023-05-21T06:32:47.305Z,20.78
2023-05-21T06:33:49.886Z,20.94
2023-05-21T06:34:51.585Z,21.17
2023-05-21T06:35:53.410Z,21.11
2023-05-21T06:36:54.958Z,20.87
2023-05-21T06:37:56.511Z,20.99
2023-05-21T06:38:58.243Z,21.01
2023-05-21T06:39:59.886Z,21.20
2023-05-21T06:41:03.944Z,21.44
2023-05-21T06:42:05.858Z,21.52
2023-05-21T06:43:07.699Z,20.90
2023-05-21T06:44:10.009Z,21.19
2023-05-21T06:45:12.126Z,21.37
2023-05-21T06:46:13.751Z,21.59
2023-05-21T06:47:15.337Z,21.66
2023-05-21T06:48:17.197Z,21.31
2023-05-21T06:49:18.873Z,21.44
2023-05-21T06:50:20.691Z,21.63
2023-05-21T06:51:22.286Z,21.89
2023-05-21T06:52:23.883Z,21.90
2023-05-21T06:53:25.744Z,21.67
2023-05-21T06:54:27.350Z,21.74
2023-05-21T06:55:28.946Z,21.88
2023-05-21T06:56:30.555Z,21.82
2023-05-21T06:57:32.105Z,21.88
2023-05-21T06:58:33.710Z,21.77
2023-05-21T06:59:35.339Z,21.68
2023-05-21T07:00:37.168Z,21.64
2023-05-21T07:01:42.585Z,21.67
2023-05-21T07:02:44.775Z,21.21
2023-05-21T07:03:46.415Z,21.31
2023-05-21T07:04:48.120Z,21.37
2023-05-21T07:05:49.668Z,21.61
2023-05-21T07:06:52.413Z,21.20
2023-05-21T07:07:53.998Z,21.27
2023-05-21T07:08:55.596Z,21.22
2023-05-21T07:09:57.231Z,20.75
2023-05-21T07:10:59.054Z,21.37
2023-05-21T07:12:02.214Z,21.73
2023-05-21T07:13:03.805Z,21.99
2023-05-21T07:14:05.586Z,21.91
2023-05-21T07:15:07.835Z,21.65
2023-05-21T07:16:09.396Z,21.46
2023-05-21T07:17:11.059Z,21.72
2023-05-21T07:18:13.556Z,21.30
2023-05-21T07:19:15.478Z,20.92
2023-05-21T07:20:17.165Z,20.88
2023-05-21T07:21:18.960Z,21.19
2023-05-21T07:22:20.567Z,21.23
2023-05-21T07:23:22.475Z,21.24
2023-05-21T07:24:24.052Z,21.65
2023-05-21T07:25:25.777Z,21.22
2023-05-21T07:26:27.362Z,21.66
2023-05-21T07:27:28.934Z,21.56
2023-05-21T07:28:30.539Z,21.08
2023-05-21T07:29:33.351Z,21.62
2023-05-21T07:30:34.776Z,21.87
2023-05-21T07:31:36.432Z,21.95
2023-05-21T07:32:38.510Z,21.88
2023-05-21T07:33:40.159Z,21.95
2023-05-21T07:34:41.728Z,22.08
2023-05-21T07:35:43.289Z,22.26
2023-05-21T07:36:44.838Z,21.65
2023-05-21T07:37:47.006Z,21.78
2023-05-21T07:38:48.657Z,21.85
2023-05-21T07:39:50.246Z,21.23
2023-05-21T07:40:51.837Z,21.54
2023-05-21T07:41:53.388Z,21.83
2023-05-21T07:42:55.308Z,21.87
2023-05-21T07:43:56.941Z,21.65
2023-05-21T07:44:58.515Z,21.65
2023-05-21T07:46:00.129Z,22.05
2023-05-21T07:47:01.782Z,22.40
2023-05-21T07:48:03.467Z,22.46
2023-05-21T07:49:05.072Z,21.85
2023-05-21T07:50:06.977Z,21.79
2023-05-21T07:51:08.565Z,21.94
2023-05-21T07:52:10.144Z,22.04
2023-05-21T07:53:11.769Z,22.48
2023-05-21T07:54:13.348Z,22.21
2023-05-21T07:55:15.008Z,21.96
2023-05-21T07:56:16.635Z,21.77
2023-05-21T07:57:18.255Z,21.75
2023-05-21T07:58:20.286Z,21.94
2023-05-21T07:59:21.957Z,21.90
2023-05-21T08:00:23.670Z,22.09
2023-05-21T08:01:25.324Z,21.97
2023-05-21T08:02:26.973Z,22.34
2023-05-21T08:03:30.919Z,22.02
2023-05-21T08:04:32.901Z,21.91
2023-05-21T08:05:34.605Z,21.96
2023-05-21T08:06:37.728Z,22.09
2023-05-21T08:07:39.947Z,22.16
2023-05-21T08:08:41.683Z,22.21
2023-05-21T08:09:43.499Z,21.59
2023-05-21T08:10:45.683Z,21.40
2023-05-21T08:11:47.252Z,21.48
2023-05-21T08:12:48.998Z,21.98
2023-05-21T08:13:50.592Z,22.40
2023-05-21T08:14:52.190Z,22.49
2023-05-21T08:15:53.907Z,22.37
2023-05-21T08:16:55.877Z,22.78
2023-05-21T08:17:57.861Z,22.80
2023-05-21T08:18:59.521Z,22.49
2023-05-21T08:20:01.245Z,22.57
2023-05-21T08:21:02.837Z,22.66
2023-05-21T08:22:06.685Z,22.35
2023-05-21T08:23:08.483Z,22.33
2023-05-21T08:24:10.150Z,22.67
2023-05-21T08:25:11.724Z,22.53
2023-05-21T08:26:16.292Z,22.58
2023-05-21T08:27:17.915Z,22.31
2023-05-21T08:28:21.938Z,22.14
2023-05-21T08:29:23.497Z,22.35
2023-05-21T08:30:25.240Z,22.30
2023-05-21T08:31:27.303Z,22.24
2023-05-21T08:32:28.920Z,22.13
2023-05-21T08:33:30.578Z,22.02
2023-05-21T08:34:32.424Z,22.21
2023-05-21T08:35:33.975Z,22.72
2023-05-21T08:36:36.123Z,23.06
2023-05-21T08:37:37.757Z,23.13
2023-05-21T08:38:39.322Z,22.87
2023-05-21T08:39:40.979Z,23.19
2023-05-21T08:40:42.696Z,23.41
2023-05-21T08:41:49.610Z,23.46
2023-05-21T08:42:51.408Z,23.50
2023-05-21T08:43:56.633Z,23.13
2023-05-21T08:44:59.904Z,23.32
2023-05-21T08:46:01.613Z,23.06
2023-05-21T08:47:04.007Z,23.30
2023-05-21T08:48:06.226Z,23.21
2023-05-21T08:49:11.431Z,22.95
2023-05-21T08:50:14.740Z,22.61
2023-05-21T08:51:16.580Z,22.89
2023-05-21T08:52:18.429Z,23.11
2023-05-21T08:53:28.057Z,23.39
2023-05-21T08:54:30.881Z,23.61
2023-05-21T08:55:32.657Z,22.80
2023-05-21T08:56:35.046Z,22.52
2023-05-21T08:57:36.791Z,23.23
2023-05-21T08:58:40.327Z,23.40
2023-05-21T08:59:44.680Z,23.11
2023-05-21T09:00:46.224Z,23.36
2023-05-21T09:01:49.987Z,23.70
2023-05-21T09:02:54.634Z,23.67
2023-05-21T09:04:04.917Z,23.88
2023-05-21T09:05:15.241Z,23.43
2023-05-21T09:06:16.869Z,23.14
2023-05-21T09:07:21.096Z,22.99
2023-05-21T09:08:30.083Z,23.41
2023-05-21T09:09:34.852Z,23.68
2023-05-21T09:10:37.285Z,24.00
2023-05-21T09:11:38.908Z,24.15
2023-05-21T09:12:40.907Z,24.23
2023-05-21T09:13:42.460Z,24.36
2023-05-21T09:14:44.078Z,24.41
2023-05-21T09:15:46.191Z,24.53
2023-05-21T09:16:50.533Z,24.51
2023-05-21T09:17:52.942Z,24.34
2023-05-21T09:18:54.847Z,24.47
2023-05-21T09:20:15.003Z,24.50
2023-05-21T09:21:29.585Z,24.54
2023-05-21T09:22:31.431Z,24.58
2023-05-21T09:23:33.105Z,24.51
2023-05-21T09:24:36.326Z,24.49
2023-05-21T09:25:38.889Z,23.61
2023-05-21T09:26:44.254Z,23.65
2023-05-21T09:27:46.327Z,24.17
2023-05-21T09:28:47.958Z,23.87
2023-05-21T09:29:49.831Z,23.99
2023-05-21T09:30:54.434Z,24.36
2023-05-21T09:31:56.181Z,24.52
2023-05-21T09:32:58.614Z,23.89
2023-05-21T09:34:00.296Z,24.12
2023-05-21T09:35:09.605Z,23.87
2023-05-21T09:36:11.777Z,23.43
2023-05-21T09:37:26.459Z,23.97
2023-05-21T09:38:29.526Z,24.61
2023-05-21T09:39:31.175Z,23.74
2023-05-21T09:40:32.780Z,23.45
2023-05-21T09:41:36.230Z,23.60
2023-05-21T09:42:45.513Z,23.60
2023-05-21T09:43:47.114Z,24.11
2023-05-21T09:44:48.851Z,23.76
2023-05-21T09:45:54.395Z,24.17
2023-05-21T09:47:01.878Z,24.49
2023-05-21T09:48:03.706Z,24.61
2023-05-21T09:49:05.265Z,24.68
2023-05-21T09:50:07.759Z,24.61
2023-05-21T09:51:16.586Z,24.74
2023-05-21T09:52:28.633Z,24.82
2023-05-21T09:53:30.193Z,25.04
2023-05-21T09:54:33.453Z,25.23
2023-05-21T09:55:36.070Z,25.28
2023-05-21T09:56:37.655Z,25.45
2023-05-21T09:57:42.605Z,25.50
2023-05-21T09:58:44.257Z,25.44
2023-05-21T09:59:46.017Z,25.58
2023-05-21T10:00:47.645Z,25.05
2023-05-21T10:01:52.923Z,24.96
2023-05-21T10:02:56.017Z,25.19
2023-05-21T10:03:59.140Z,25.03
2023-05-21T10:05:01.115Z,25.03
2023-05-21T10:06:02.735Z,25.20
2023-05-21T10:07:04.511Z,25.28
2023-05-21T10:08:07.158Z,25.08
2023-05-21T10:09:10.934Z,25.19
2023-05-21T10:10:14.762Z,25.38
2023-05-21T10:11:16.366Z,25.15
2023-05-21T10:12:18.033Z,23.83
2023-05-21T10:13:21.500Z,24.13
2023-05-21T10:14:23.543Z,24.21
2023-05-21T10:15:25.767Z,24.70
2023-05-21T10:16:28.398Z,24.73
2023-05-21T10:17:30.787Z,24.85
2023-05-21T10:18:32.521Z,24.97
2023-05-21T10:19:36.376Z,25.12
2023-05-21T10:20:38.165Z,24.80
2023-05-21T10:21:40.095Z,24.71
2023-05-21T10:22:41.714Z,24.33
2023-05-21T10:23:43.292Z,24.17
2023-05-21T10:24:45.467Z,24.64
2023-05-21T10:25:47.251Z,24.81
2023-05-21T10:26:48.804Z,24.89
2023-05-21T10:27:50.396Z,24.79
2023-05-21T10:28:52.255Z,24.75
2023-05-21T10:29:53.813Z,24.98
2023-05-21T10:30:55.369Z,25.13
2023-05-21T10:31:57.026Z,25.32
2023-05-21T10:32:59.141Z,25.36
2023-05-21T10:34:00.804Z,25.48
2023-05-21T10:35:02.698Z,25.53
2023-05-21T10:36:04.808Z,25.40
2023-05-21T10:37:08.143Z,25.48
2023-05-21T10:38:09.718Z,25.56
2023-05-21T10:39:12.772Z,25.66
2023-05-21T10:40:14.406Z,25.73
2023-05-21T10:41:16.127Z,25.81
2023-05-21T10:42:45.705Z,26.00
2023-05-21T10:44:05.773Z,26.10
2023-05-21T10:45:17.169Z,26.13
2023-05-21T10:46:42.877Z,26.23
2023-05-21T10:47:44.377Z,26.32
2023-05-21T10:49:11.664Z,26.36
2023-05-21T10:50:17.047Z,26.54
2023-05-21T10:51:39.914Z,26.49
2023-05-21T10:53:10.895Z,26.42
2023-05-21T10:54:42.270Z,26.03
2023-05-21T10:55:49.371Z,26.17
2023-05-21T10:57:12.762Z,26.33
2023-05-21T10:58:22.209Z,26.35
2023-05-21T10:59:40.256Z,26.22
2023-05-21T11:00:42.684Z,26.22
2023-05-21T11:01:45.223Z,26.04
2023-05-21T11:02:48.798Z,25.65
2023-05-21T11:03:50.663Z,24.95
2023-05-21T11:05:01.684Z,25.11
2023-05-21T11:06:03.683Z,25.73
2023-05-21T11:07:05.644Z,25.89
2023-05-21T11:08:20.878Z,26.08
2023-05-21T11:09:22.854Z,25.98
2023-05-21T11:10:41.013Z,25.77
2023-05-21T11:11:52.348Z,25.53
2023-05-21T11:13:12.353Z,25.36
2023-05-21T11:14:35.897Z,25.88
2023-05-21T11:15:59.503Z,25.97
2023-05-21T11:17:15.907Z,26.12
2023-05-21T11:18:17.538Z,26.23
2023-05-21T11:19:19.413Z,26.24
2023-05-21T11:20:22.823Z,26.10
2023-05-21T11:21:28.491Z,26.26
2023-05-21T11:22:30.342Z,26.02
2023-05-21T11:23:50.388Z,26.24
2023-05-21T11:24:55.855Z,26.17
2023-05-21T11:26:03.466Z,26.22
2023-05-21T11:27:06.126Z,26.37
2023-05-21T11:28:09.598Z,26.42
2023-05-21T11:29:11.269Z,26.46
2023-05-21T11:30:19.274Z,26.49
2023-05-21T11:31:27.247Z,26.55
2023-05-21T11:32:29.842Z,26.61
2023-05-21T11:33:31.528Z,26.57
2023-05-21T11:34:40.148Z,26.47
2023-05-21T11:35:50.703Z,26.31
2023-05-21T11:36:53.102Z,26.46
2023-05-21T11:37:54.786Z,26.29
2023-05-21T11:39:18.191Z,26.17
2023-05-21T11:40:26.692Z,26.45
2023-05-21T11:41:28.325Z,26.39
2023-05-21T11:42:30.970Z,26.42
2023-05-21T11:43:32.682Z,26.52
2023-05-21T11:44:44.067Z,26.59
2023-05-21T11:45:47.382Z,26.65
2023-05-21T11:46:49.389Z,26.63
2023-05-21T11:47:52.001Z,26.48
2023-05-21T11:48:53.737Z,26.50
2023-05-21T11:49:56.859Z,26.67
2023-05-21T11:50:58.440Z,26.63
2023-05-21T11:52:00.646Z,26.64
2023-05-21T11:53:02.328Z,26.68
2023-05-21T11:54:04.052Z,26.72
2023-05-21T11:55:07.464Z,26.66
2023-05-21T11:56:09.867Z,26.75
2023-05-21T11:57:12.100Z,26.54
2023-05-21T11:58:14.599Z,26.80
2023-05-21T11:59:18.656Z,26.77
2023-05-21T12:00:21.664Z,26.71
2023-05-21T12:01:24.396Z,26.50
2023-05-21T12:02:31.888Z,26.68
2023-05-21T12:03:35.407Z,26.55
2023-05-21T12:04:37.043Z,26.66
2023-05-21T12:05:48.323Z,26.70
2023-05-21T12:06:50.652Z,26.92
2023-05-21T12:07:52.500Z,27.07
2023-05-21T12:08:58.162Z,26.58
2023-05-21T12:10:00.335Z,26.97
2023-05-21T12:11:01.979Z,26.66
2023-05-21T12:12:05.863Z,27.01
2023-05-21T12:13:07.483Z,27.30
2023-05-21T12:14:10.340Z,27.40
2023-05-21T12:15:13.446Z,27.23
2023-05-21T12:16:15.203Z,27.08
2023-05-21T12:17:17.919Z,27.31
2023-05-21T12:18:19.586Z,27.55
2023-05-21T12:19:22.140Z,27.61
2023-05-21T12:20:26.285Z,27.46
2023-05-21T12:21:29.349Z,27.52
2023-05-21T12:22:30.958Z,27.81
2023-05-21T12:23:32.552Z,28.04
2023-05-21T12:24:34.466Z,28.13
2023-05-21T12:25:36.075Z,28.24
2023-05-21T12:26:37.662Z,28.20
2023-05-21T12:27:39.650Z,28.37
2023-05-21T12:28:41.360Z,28.58
2023-05-21T12:29:44.240Z,28.72
2023-05-21T12:30:46.183Z,28.88
2023-05-21T12:31:49.437Z,28.97
2023-05-21T12:32:51.474Z,28.90
2023-05-21T12:33:53.168Z,28.43
2023-05-21T12:34:56.049Z,28.44
2023-05-21T12:35:57.772Z,28.45
2023-05-21T12:36:59.332Z,28.65
2023-05-21T12:38:02.628Z,28.76
2023-05-21T12:39:04.537Z,28.82
2023-05-21T12:40:07.831Z,28.83
2023-05-21T12:41:09.439Z,28.80
2023-05-21T12:42:11.352Z,28.66
2023-05-21T12:43:12.949Z,28.24
2023-05-21T12:44:14.516Z,28.50
2023-05-21T12:45:18.445Z,28.68
2023-05-21T12:46:20.267Z,28.90
2023-05-21T12:47:26.617Z,28.86
2023-05-21T12:48:28.327Z,28.90
2023-05-21T12:49:38.797Z,28.85
2023-05-21T12:50:41.945Z,28.95
2023-05-21T12:51:43.627Z,29.02
2023-05-21T12:52:45.239Z,28.99
2023-05-21T12:53:46.958Z,28.93
2023-05-21T12:54:52.471Z,28.77
2023-05-21T12:55:56.422Z,28.77
2023-05-21T12:56:58.007Z,28.94
2023-05-21T12:58:04.696Z,29.07
2023-05-21T12:59:06.256Z,29.00
2023-05-21T13:00:08.849Z,28.54
2023-05-21T13:01:12.019Z,28.72
2023-05-21T13:02:16.099Z,28.59
2023-05-21T13:03:18.054Z,28.66
2023-05-21T13:04:20.749Z,28.53
2023-05-21T13:05:22.359Z,28.45
2023-05-21T13:06:24.640Z,27.89
2023-05-21T13:07:26.823Z,27.92
2023-05-21T13:08:28.590Z,28.02
2023-05-21T13:09:30.161Z,28.05
2023-05-21T13:10:31.786Z,28.02
2023-05-21T13:11:33.426Z,28.08
2023-05-21T13:12:35.196Z,28.29
2023-05-21T13:13:36.776Z,28.48
2023-05-21T13:14:38.364Z,28.61
2023-05-21T13:15:40.065Z,28.71
2023-05-21T13:16:47.094Z,28.41
2023-05-21T13:17:50.123Z,28.71
2023-05-21T13:18:52.459Z,28.92
2023-05-21T13:20:07.220Z,28.90
2023-05-21T13:21:08.751Z,28.71
2023-05-21T13:22:10.655Z,28.75
2023-05-21T13:23:12.421Z,29.07
2023-05-21T13:24:14.023Z,29.14
2023-05-21T13:25:16.912Z,29.11
2023-05-21T13:26:18.504Z,29.05
2023-05-21T13:27:20.457Z,28.73
2023-05-21T13:28:23.653Z,28.71
2023-05-21T13:29:25.311Z,29.11
2023-05-21T13:30:27.010Z,29.20
2023-05-21T13:31:28.680Z,29.45